Huvudsida
METAR-TAF:

METAR-TAF

Flygplatser :

Berns flygplats

Bern, Schweiz

latitud: 46-55N, longitud: 007-30E, höjd: 505 m

Aktuellt väderrapport

Denna rapport gjordes för 23 minuter sedan, klockan 21:50 UTC
Vind 7 kt från nord/nordväst
Temperatur 8°C
Fuktighet 87%
Tryck 1007 hPa
Sikt 10 km eller mer
Få moln på en höjd av 8500 ft
Brutna moln på en höjd av 10000 ft
Brutna moln på en höjd av 10000 ft

METAR: LSZB 142150Z AUTO 34007KT 9999 FEW085 BKN100 BKN100 08/06 Q1007

Tid: 23:13 (22:13 UTC)

Väderprognos

Denna rapport gjordes för 7 timmar och 48 minuter sedan, klockan 14:25 UTC
Prognos gäller från 14 kl. 15 UTC till 14 kl. 24 UTC
Vind 10 kt från väst
Sikt 10 km eller mer
Brutna moln på en höjd av 5500 ft
Blir
från 14 kl. 15 UTC till 14 kl. 17 UTC
Vind 3 kt varierande vindriktning
Sannolikhet 30% :
Temporärt
från 14 kl. 16 UTC till 14 kl. 20 UTC
regn

TAF: LSZB 141425Z 1415/1424 26010KT 9999 BKN055 BECMG 1415/1417 VRB03KT PROB30 TEMPO 1416/1420 RA

Aktuella väderrapporter och prognoser från 4000 flygplatser (METAR- och TAF-rapporter).

De tillgängliga stationerna syns som gula och röda prickar på kartan.

För musen över prickarna för att se namnen på stationerna.

Klicka sedan för att få väderrapporter och prognoser.

För att ändra kartan: Klicka på de gröna knapparna med ett svart kors på för att zooma in; den gröna knappen med ett streck på för att zooma ut; eller på de gröna pilarna för angränsande kartor.


METAR-TAF: